sensor_id;sensor_type;location;lat;lon;timestamp;P1;durP1;ratioP1;P2;durP2;ratioP2
12059;SDS011;6091;51.432;6.880;2022-09-09T00:00:54;1.48;;;0.88;;
12059;SDS011;6091;51.432;6.880;2022-09-09T00:03:28;1.13;;;1.02;;
12059;SDS011;6091;51.432;6.880;2022-09-09T00:06:14;1.02;;;0.93;;
12059;SDS011;6091;51.432;6.880;2022-09-09T00:09:12;1.67;;;0.90;;
12059;SDS011;6091;51.432;6.880;2022-09-09T00:11:46;0.95;;;0.70;;
12059;SDS011;6091;51.432;6.880;2022-09-09T00:20:27;1.25;;;0.70;;
12059;SDS011;6091;51.432;6.880;2022-09-09T00:26:14;0.70;;;0.70;;
12059;SDS011;6091;51.432;6.880;2022-09-09T00:28:55;0.85;;;0.80;;
12059;SDS011;6091;51.432;6.880;2022-09-09T00:31:46;0.90;;;0.60;;
12059;SDS011;6091;51.432;6.880;2022-09-09T00:34:15;0.70;;;0.70;;
12059;SDS011;6091;51.432;6.880;2022-09-09T00:36:48;1.45;;;0.80;;
12059;SDS011;6091;51.432;6.880;2022-09-09T00:39:32;2.28;;;1.00;;
12059;SDS011;6091;51.432;6.880;2022-09-09T00:42:18;0.60;;;0.60;;
12059;SDS011;6091;51.432;6.880;2022-09-09T00:44:58;0.70;;;0.70;;
12059;SDS011;6091;51.432;6.880;2022-09-09T00:47:50;1.25;;;0.70;;
12059;SDS011;6091;51.432;6.880;2022-09-09T00:50:26;1.77;;;0.80;;
12059;SDS011;6091;51.432;6.880;2022-09-09T00:56:42;0.65;;;0.57;;
12059;SDS011;6091;51.432;6.880;2022-09-09T00:59:45;1.08;;;0.90;;
12059;SDS011;6091;51.432;6.880;2022-09-09T01:02:28;1.30;;;0.68;;
12059;SDS011;6091;51.432;6.880;2022-09-09T01:05:00;0.68;;;0.68;;
12059;SDS011;6091;51.432;6.880;2022-09-09T01:07:40;1.83;;;0.68;;
12059;SDS011;6091;51.432;6.880;2022-09-09T01:10:20;0.68;;;0.60;;
12059;SDS011;6091;51.432;6.880;2022-09-09T01:13:04;1.25;;;0.70;;
12059;SDS011;6091;51.432;6.880;2022-09-09T01:15:43;1.15;;;0.80;;
12059;SDS011;6091;51.432;6.880;2022-09-09T01:18:13;0.65;;;0.65;;
12059;SDS011;6091;51.432;6.880;2022-09-09T01:20:49;0.85;;;0.70;;
12059;SDS011;6091;51.432;6.880;2022-09-09T01:23:41;0.95;;;0.60;;
12059;SDS011;6091;51.432;6.880;2022-09-09T01:26:36;0.65;;;0.60;;
12059;SDS011;6091;51.432;6.880;2022-09-09T01:29:08;0.80;;;0.80;;
12059;SDS011;6091;51.432;6.880;2022-09-09T01:31:42;0.50;;;0.50;;
12059;SDS011;6091;51.432;6.880;2022-09-09T01:34:30;0.90;;;0.60;;
12059;SDS011;6091;51.432;6.880;2022-09-09T01:37:06;0.88;;;0.70;;
12059;SDS011;6091;51.432;6.880;2022-09-09T01:39:36;1.15;;;0.90;;
12059;SDS011;6091;51.432;6.880;2022-09-09T01:42:09;0.93;;;0.82;;
12059;SDS011;6091;51.432;6.880;2022-09-09T01:44:40;0.50;;;0.50;;
12059;SDS011;6091;51.432;6.880;2022-09-09T01:47:07;0.70;;;0.70;;
12059;SDS011;6091;51.432;6.880;2022-09-09T01:49:35;0.60;;;0.60;;
12059;SDS011;6091;51.432;6.880;2022-09-09T01:52:02;1.67;;;0.80;;
12059;SDS011;6091;51.432;6.880;2022-09-09T01:54:30;0.88;;;0.68;;
12059;SDS011;6091;51.432;6.880;2022-09-09T02:08:56;0.82;;;0.63;;
12059;SDS011;6091;51.432;6.880;2022-09-09T02:14:26;0.68;;;0.68;;
12059;SDS011;6091;51.432;6.880;2022-09-09T02:17:10;1.00;;;0.73;;
12059;SDS011;6091;51.432;6.880;2022-09-09T02:19:42;0.65;;;0.65;;
12059;SDS011;6091;51.432;6.880;2022-09-09T02:22:17;0.60;;;0.50;;
12059;SDS011;6091;51.432;6.880;2022-09-09T02:24:50;0.80;;;0.80;;
12059;SDS011;6091;51.432;6.880;2022-09-09T02:27:21;0.82;;;0.60;;
12059;SDS011;6091;51.432;6.880;2022-09-09T02:29:49;1.02;;;0.80;;
12059;SDS011;6091;51.432;6.880;2022-09-09T02:32:19;0.50;;;0.50;;
12059;SDS011;6091;51.432;6.880;2022-09-09T02:34:51;0.95;;;0.70;;
12059;SDS011;6091;51.432;6.880;2022-09-09T02:37:28;0.60;;;0.60;;
12059;SDS011;6091;51.432;6.880;2022-09-09T02:40:04;0.50;;;0.50;;
12059;SDS011;6091;51.432;6.880;2022-09-09T02:42:44;0.63;;;0.55;;
12059;SDS011;6091;51.432;6.880;2022-09-09T02:45:15;1.35;;;0.50;;
12059;SDS011;6091;51.432;6.880;2022-09-09T02:50:42;0.88;;;0.65;;
12059;SDS011;6091;51.432;6.880;2022-09-09T02:53:24;1.10;;;0.70;;
12059;SDS011;6091;51.432;6.880;2022-09-09T02:56:04;0.80;;;0.77;;
12059;SDS011;6091;51.432;6.880;2022-09-09T02:58:47;0.60;;;0.60;;
12059;SDS011;6091;51.432;6.880;2022-09-09T03:01:15;0.63;;;0.63;;
12059;SDS011;6091;51.432;6.880;2022-09-09T03:03:43;0.88;;;0.70;;
12059;SDS011;6091;51.432;6.880;2022-09-09T03:06:12;0.80;;;0.70;;
12059;SDS011;6091;51.432;6.880;2022-09-09T03:08:40;0.60;;;0.60;;
12059;SDS011;6091;51.432;6.880;2022-09-09T03:11:14;1.02;;;0.82;;
12059;SDS011;6091;51.432;6.880;2022-09-09T03:13:43;0.63;;;0.63;;
12059;SDS011;6091;51.432;6.880;2022-09-09T03:16:10;0.70;;;0.60;;
12059;SDS011;6091;51.432;6.880;2022-09-09T03:18:36;1.35;;;0.70;;
12059;SDS011;6091;51.432;6.880;2022-09-09T03:21:03;1.00;;;0.70;;
12059;SDS011;6091;51.432;6.880;2022-09-09T03:23:31;0.60;;;0.60;;
12059;SDS011;6091;51.432;6.880;2022-09-09T03:25:58;0.70;;;0.70;;
12059;SDS011;6091;51.432;6.880;2022-09-09T03:28:25;0.80;;;0.80;;
12059;SDS011;6091;51.432;6.880;2022-09-09T03:31:00;0.60;;;0.60;;
12059;SDS011;6091;51.432;6.880;2022-09-09T03:33:29;0.77;;;0.77;;
12059;SDS011;6091;51.432;6.880;2022-09-09T03:35:56;1.00;;;0.90;;
12059;SDS011;6091;51.432;6.880;2022-09-09T03:38:24;0.70;;;0.70;;
12059;SDS011;6091;51.432;6.880;2022-09-09T03:40:52;0.90;;;0.68;;
12059;SDS011;6091;51.432;6.880;2022-09-09T03:43:22;1.20;;;0.80;;
12059;SDS011;6091;51.432;6.880;2022-09-09T03:45:52;0.95;;;0.70;;
12059;SDS011;6091;51.432;6.880;2022-09-09T03:48:23;0.65;;;0.60;;
12059;SDS011;6091;51.432;6.880;2022-09-09T03:50:53;1.15;;;0.70;;
12059;SDS011;6091;51.432;6.880;2022-09-09T03:53:27;0.70;;;0.60;;
12059;SDS011;6091;51.432;6.880;2022-09-09T03:55:55;1.10;;;0.80;;
12059;SDS011;6091;51.432;6.880;2022-09-09T03:58:26;0.63;;;0.63;;
12059;SDS011;6091;51.432;6.880;2022-09-09T04:03:23;0.65;;;0.65;;
12059;SDS011;6091;51.432;6.880;2022-09-09T04:05:54;0.82;;;0.60;;
12059;SDS011;6091;51.432;6.880;2022-09-09T04:08:22;0.88;;;0.80;;
12059;SDS011;6091;51.432;6.880;2022-09-09T04:10:53;0.85;;;0.77;;
12059;SDS011;6091;51.432;6.880;2022-09-09T04:13:26;0.75;;;0.75;;
12059;SDS011;6091;51.432;6.880;2022-09-09T04:15:55;2.20;;;0.88;;
12059;SDS011;6091;51.432;6.880;2022-09-09T04:18:27;1.50;;;0.88;;
12059;SDS011;6091;51.432;6.880;2022-09-09T04:20:57;1.63;;;0.65;;
12059;SDS011;6091;51.432;6.880;2022-09-09T04:23:25;0.70;;;0.70;;
12059;SDS011;6091;51.432;6.880;2022-09-09T04:25:56;1.40;;;0.95;;
12059;SDS011;6091;51.432;6.880;2022-09-09T04:28:25;1.42;;;0.90;;
12059;SDS011;6091;51.432;6.880;2022-09-09T04:30:56;1.33;;;1.05;;
12059;SDS011;6091;51.432;6.880;2022-09-09T04:33:29;0.90;;;0.60;;
12059;SDS011;6091;51.432;6.880;2022-09-09T04:36:05;1.08;;;0.60;;
12059;SDS011;6091;51.432;6.880;2022-09-09T04:38:33;1.17;;;0.80;;
12059;SDS011;6091;51.432;6.880;2022-09-09T04:41:00;0.63;;;0.63;;
12059;SDS011;6091;51.432;6.880;2022-09-09T04:43:27;0.77;;;0.52;;
12059;SDS011;6091;51.432;6.880;2022-09-09T04:45:54;0.85;;;0.75;;
12059;SDS011;6091;51.432;6.880;2022-09-09T04:48:22;0.50;;;0.50;;
12059;SDS011;6091;51.432;6.880;2022-09-09T04:50:58;1.33;;;1.00;;
12059;SDS011;6091;51.432;6.880;2022-09-09T04:53:36;1.17;;;0.85;;
12059;SDS011;6091;51.432;6.880;2022-09-09T04:56:05;1.95;;;0.90;;
12059;SDS011;6091;51.432;6.880;2022-09-09T04:58:36;0.82;;;0.80;;
12059;SDS011;6091;51.432;6.880;2022-09-09T05:01:09;1.13;;;0.77;;
12059;SDS011;6091;51.432;6.880;2022-09-09T05:03:39;0.82;;;0.80;;
12059;SDS011;6091;51.432;6.880;2022-09-09T05:06:07;1.35;;;0.80;;
12059;SDS011;6091;51.432;6.880;2022-09-09T05:08:39;1.13;;;0.73;;
12059;SDS011;6091;51.432;6.880;2022-09-09T05:13:44;1.88;;;1.00;;
12059;SDS011;6091;51.432;6.880;2022-09-09T05:16:12;1.08;;;0.80;;
12059;SDS011;6091;51.432;6.880;2022-09-09T05:18:40;0.93;;;0.80;;
12059;SDS011;6091;51.432;6.880;2022-09-09T05:21:09;1.08;;;0.80;;
12059;SDS011;6091;51.432;6.880;2022-09-09T05:23:38;0.80;;;0.75;;
12059;SDS011;6091;51.432;6.880;2022-09-09T05:26:11;1.67;;;0.80;;
12059;SDS011;6091;51.432;6.880;2022-09-09T05:28:44;0.82;;;0.57;;
12059;SDS011;6091;51.432;6.880;2022-09-09T05:31:13;1.05;;;0.65;;
12059;SDS011;6091;51.432;6.880;2022-09-09T05:33:43;0.82;;;0.80;;
12059;SDS011;6091;51.432;6.880;2022-09-09T05:36:13;1.10;;;0.90;;
12059;SDS011;6091;51.432;6.880;2022-09-09T05:38:43;1.00;;;0.90;;
12059;SDS011;6091;51.432;6.880;2022-09-09T05:41:10;1.42;;;0.88;;
12059;SDS011;6091;51.432;6.880;2022-09-09T05:43:39;1.60;;;1.00;;
12059;SDS011;6091;51.432;6.880;2022-09-09T05:46:07;1.50;;;1.02;;
12059;SDS011;6091;51.432;6.880;2022-09-09T05:48:38;1.73;;;1.00;;
12059;SDS011;6091;51.432;6.880;2022-09-09T05:51:13;0.90;;;0.90;;
12059;SDS011;6091;51.432;6.880;2022-09-09T05:53:43;2.08;;;0.90;;
12059;SDS011;6091;51.432;6.880;2022-09-09T05:56:15;1.40;;;0.98;;
12059;SDS011;6091;51.432;6.880;2022-09-09T05:58:45;1.38;;;0.82;;
12059;SDS011;6091;51.432;6.880;2022-09-09T06:01:16;1.23;;;1.00;;
12059;SDS011;6091;51.432;6.880;2022-09-09T06:03:50;2.40;;;1.20;;
12059;SDS011;6091;51.432;6.880;2022-09-09T06:06:21;1.00;;;0.80;;
12059;SDS011;6091;51.432;6.880;2022-09-09T06:08:53;1.33;;;0.75;;
12059;SDS011;6091;51.432;6.880;2022-09-09T06:11:25;0.85;;;0.85;;
12059;SDS011;6091;51.432;6.880;2022-09-09T06:13:59;1.52;;;0.88;;
12059;SDS011;6091;51.432;6.880;2022-09-09T06:16:28;1.60;;;1.20;;
12059;SDS011;6091;51.432;6.880;2022-09-09T06:18:58;2.72;;;1.23;;
12059;SDS011;6091;51.432;6.880;2022-09-09T06:21:27;1.85;;;0.90;;
12059;SDS011;6091;51.432;6.880;2022-09-09T06:24:04;1.27;;;0.90;;
12059;SDS011;6091;51.432;6.880;2022-09-09T06:26:32;1.90;;;1.00;;
12059;SDS011;6091;51.432;6.880;2022-09-09T06:29:02;2.08;;;1.15;;
12059;SDS011;6091;51.432;6.880;2022-09-09T06:31:31;1.40;;;1.05;;
12059;SDS011;6091;51.432;6.880;2022-09-09T06:34:08;1.73;;;1.10;;
12059;SDS011;6091;51.432;6.880;2022-09-09T06:36:36;1.42;;;0.90;;
12059;SDS011;6091;51.432;6.880;2022-09-09T06:39:05;4.30;;;1.23;;
12059;SDS011;6091;51.432;6.880;2022-09-09T06:41:39;3.33;;;1.10;;
12059;SDS011;6091;51.432;6.880;2022-09-09T06:44:07;2.53;;;1.10;;
12059;SDS011;6091;51.432;6.880;2022-09-09T06:46:34;2.78;;;1.55;;
12059;SDS011;6091;51.432;6.880;2022-09-09T06:49:02;2.45;;;1.35;;
12059;SDS011;6091;51.432;6.880;2022-09-09T06:51:30;3.20;;;1.20;;
12059;SDS011;6091;51.432;6.880;2022-09-09T06:54:01;1.95;;;1.23;;
12059;SDS011;6091;51.432;6.880;2022-09-09T06:56:34;1.85;;;1.20;;
12059;SDS011;6091;51.432;6.880;2022-09-09T06:59:04;3.88;;;1.42;;
12059;SDS011;6091;51.432;6.880;2022-09-09T07:01:35;1.27;;;0.85;;
12059;SDS011;6091;51.432;6.880;2022-09-09T07:04:07;1.20;;;1.02;;
12059;SDS011;6091;51.432;6.880;2022-09-09T07:06:36;1.25;;;0.98;;
12059;SDS011;6091;51.432;6.880;2022-09-09T07:09:07;2.33;;;1.35;;
12059;SDS011;6091;51.432;6.880;2022-09-09T07:11:41;1.73;;;1.10;;
12059;SDS011;6091;51.432;6.880;2022-09-09T07:14:17;1.30;;;1.20;;
12059;SDS011;6091;51.432;6.880;2022-09-09T07:16:45;3.13;;;1.50;;
12059;SDS011;6091;51.432;6.880;2022-09-09T07:19:13;3.22;;;1.30;;
12059;SDS011;6091;51.432;6.880;2022-09-09T07:21:40;1.75;;;1.02;;
12059;SDS011;6091;51.432;6.880;2022-09-09T07:24:08;4.60;;;1.63;;
12059;SDS011;6091;51.432;6.880;2022-09-09T07:26:37;3.38;;;1.67;;
12059;SDS011;6091;51.432;6.880;2022-09-09T07:29:06;2.55;;;1.30;;
12059;SDS011;6091;51.432;6.880;2022-09-09T07:31:36;3.78;;;1.40;;
12059;SDS011;6091;51.432;6.880;2022-09-09T07:34:06;3.55;;;1.30;;
12059;SDS011;6091;51.432;6.880;2022-09-09T07:36:38;2.45;;;1.38;;
12059;SDS011;6091;51.432;6.880;2022-09-09T07:39:07;4.63;;;1.40;;
12059;SDS011;6091;51.432;6.880;2022-09-09T07:41:43;2.80;;;1.30;;
12059;SDS011;6091;51.432;6.880;2022-09-09T07:44:16;2.20;;;1.42;;
12059;SDS011;6091;51.432;6.880;2022-09-09T07:46:51;2.00;;;1.15;;
12059;SDS011;6091;51.432;6.880;2022-09-09T07:49:18;2.63;;;1.20;;
12059;SDS011;6091;51.432;6.880;2022-09-09T07:51:53;2.42;;;1.10;;
12059;SDS011;6091;51.432;6.880;2022-09-09T07:54:21;2.97;;;1.35;;
12059;SDS011;6091;51.432;6.880;2022-09-09T07:56:50;3.35;;;1.65;;
12059;SDS011;6091;51.432;6.880;2022-09-09T07:59:18;4.07;;;1.50;;
12059;SDS011;6091;51.432;6.880;2022-09-09T08:01:46;3.75;;;1.40;;
12059;SDS011;6091;51.432;6.880;2022-09-09T08:04:17;5.28;;;1.95;;
12059;SDS011;6091;51.432;6.880;2022-09-09T08:06:51;3.00;;;1.48;;
12059;SDS011;6091;51.432;6.880;2022-09-09T08:09:23;2.20;;;1.23;;
12059;SDS011;6091;51.432;6.880;2022-09-09T08:11:53;4.22;;;2.25;;
12059;SDS011;6091;51.432;6.880;2022-09-09T08:14:20;2.35;;;1.15;;
12059;SDS011;6091;51.432;6.880;2022-09-09T08:16:47;6.20;;;1.38;;
12059;SDS011;6091;51.432;6.880;2022-09-09T08:19:16;3.95;;;1.48;;
12059;SDS011;6091;51.432;6.880;2022-09-09T08:21:44;4.50;;;1.33;;
12059;SDS011;6091;51.432;6.880;2022-09-09T08:24:12;2.60;;;1.42;;
12059;SDS011;6091;51.432;6.880;2022-09-09T08:26:43;4.00;;;1.80;;
12059;SDS011;6091;51.432;6.880;2022-09-09T08:29:13;3.08;;;1.40;;
12059;SDS011;6091;51.432;6.880;2022-09-09T08:31:42;2.80;;;1.42;;
12059;SDS011;6091;51.432;6.880;2022-09-09T08:34:15;3.97;;;1.30;;
12059;SDS011;6091;51.432;6.880;2022-09-09T08:36:44;5.10;;;1.52;;
12059;SDS011;6091;51.432;6.880;2022-09-09T08:39:14;3.17;;;1.23;;
12059;SDS011;6091;51.432;6.880;2022-09-09T08:44:37;3.10;;;1.20;;
12059;SDS011;6091;51.432;6.880;2022-09-09T08:50:30;5.78;;;1.20;;
12059;SDS011;6091;51.432;6.880;2022-09-09T08:58:20;1.98;;;1.13;;
12059;SDS011;6091;51.432;6.880;2022-09-09T09:03:52;3.70;;;1.40;;
12059;SDS011;6091;51.432;6.880;2022-09-09T09:06:55;4.13;;;0.90;;
12059;SDS011;6091;51.432;6.880;2022-09-09T09:12:27;4.13;;;1.08;;
12059;SDS011;6091;51.432;6.880;2022-09-09T09:15:08;4.28;;;1.45;;
12059;SDS011;6091;51.432;6.880;2022-09-09T09:17:45;4.40;;;1.40;;
12059;SDS011;6091;51.432;6.880;2022-09-09T09:20:16;2.83;;;1.27;;
12059;SDS011;6091;51.432;6.880;2022-09-09T09:22:56;4.45;;;1.67;;
12059;SDS011;6091;51.432;6.880;2022-09-09T09:25:39;2.30;;;1.40;;
12059;SDS011;6091;51.432;6.880;2022-09-09T09:28:15;3.53;;;1.20;;
12059;SDS011;6091;51.432;6.880;2022-09-09T09:30:57;2.55;;;1.25;;
12059;SDS011;6091;51.432;6.880;2022-09-09T09:33:40;1.40;;;1.10;;
12059;SDS011;6091;51.432;6.880;2022-09-09T09:36:40;1.45;;;1.00;;
12059;SDS011;6091;51.432;6.880;2022-09-09T09:39:25;1.92;;;1.50;;
12059;SDS011;6091;51.432;6.880;2022-09-09T09:42:16;2.05;;;1.00;;
12059;SDS011;6091;51.432;6.880;2022-09-09T09:44:48;2.70;;;1.33;;
12059;SDS011;6091;51.432;6.880;2022-09-09T09:47:20;2.13;;;1.10;;
12059;SDS011;6091;51.432;6.880;2022-09-09T09:49:53;3.70;;;1.33;;
12059;SDS011;6091;51.432;6.880;2022-09-09T09:52:26;2.65;;;1.08;;
12059;SDS011;6091;51.432;6.880;2022-09-09T09:54:56;3.80;;;1.40;;
12059;SDS011;6091;51.432;6.880;2022-09-09T09:57:32;3.25;;;1.33;;
12059;SDS011;6091;51.432;6.880;2022-09-09T10:00:03;1.90;;;1.10;;
12059;SDS011;6091;51.432;6.880;2022-09-09T10:02:41;2.15;;;1.30;;
12059;SDS011;6091;51.432;6.880;2022-09-09T10:05:15;2.25;;;1.48;;
12059;SDS011;6091;51.432;6.880;2022-09-09T10:16:52;2.30;;;1.10;;
12059;SDS011;6091;51.432;6.880;2022-09-09T10:22:36;2.33;;;1.08;;
12059;SDS011;6091;51.432;6.880;2022-09-09T10:25:25;2.40;;;1.13;;
12059;SDS011;6091;51.432;6.880;2022-09-09T10:31:16;2.28;;;0.93;;
12059;SDS011;6091;51.432;6.880;2022-09-09T10:34:08;1.67;;;1.00;;
12059;SDS011;6091;51.432;6.880;2022-09-09T10:36:59;1.67;;;0.90;;
12059;SDS011;6091;51.432;6.880;2022-09-09T10:39:36;1.88;;;0.88;;
12059;SDS011;6091;51.432;6.880;2022-09-09T10:42:18;1.05;;;0.75;;
12059;SDS011;6091;51.432;6.880;2022-09-09T10:48:04;2.97;;;0.75;;
12059;SDS011;6091;51.432;6.880;2022-09-09T10:54:29;1.52;;;0.90;;
12059;SDS011;6091;51.432;6.880;2022-09-09T11:00:21;1.77;;;0.80;;
12059;SDS011;6091;51.432;6.880;2022-09-09T11:03:09;3.40;;;0.90;;
12059;SDS011;6091;51.432;6.880;2022-09-09T11:05:57;1.45;;;0.98;;
12059;SDS011;6091;51.432;6.880;2022-09-09T11:08:34;1.50;;;0.73;;
12059;SDS011;6091;51.432;6.880;2022-09-09T11:11:19;0.98;;;0.80;;
12059;SDS011;6091;51.432;6.880;2022-09-09T11:14:05;2.53;;;0.90;;
12059;SDS011;6091;51.432;6.880;2022-09-09T11:16:53;1.40;;;0.75;;
12059;SDS011;6091;51.432;6.880;2022-09-09T11:19:34;0.80;;;0.68;;
12059;SDS011;6091;51.432;6.880;2022-09-09T11:22:27;2.63;;;0.80;;
12059;SDS011;6091;51.432;6.880;2022-09-09T11:25:06;3.10;;;0.98;;
12059;SDS011;6091;51.432;6.880;2022-09-09T11:27:51;3.67;;;0.98;;
12059;SDS011;6091;51.432;6.880;2022-09-09T11:30:59;1.50;;;1.00;;
12059;SDS011;6091;51.432;6.880;2022-09-09T11:42:20;1.83;;;1.02;;
12059;SDS011;6091;51.432;6.880;2022-09-09T11:44:50;2.45;;;0.90;;
12059;SDS011;6091;51.432;6.880;2022-09-09T11:50:07;2.72;;;0.93;;
12059;SDS011;6091;51.432;6.880;2022-09-09T11:53:18;2.05;;;0.90;;
12059;SDS011;6091;51.432;6.880;2022-09-09T11:56:02;1.15;;;0.90;;
12059;SDS011;6091;51.432;6.880;2022-09-09T11:58:37;2.88;;;0.90;;
12059;SDS011;6091;51.432;6.880;2022-09-09T12:01:26;3.05;;;1.05;;
12059;SDS011;6091;51.432;6.880;2022-09-09T12:12:24;1.63;;;1.08;;
12059;SDS011;6091;51.432;6.880;2022-09-09T12:15:46;1.95;;;1.02;;
12059;SDS011;6091;51.432;6.880;2022-09-09T12:17:51;1.85;;;0.95;;
12059;SDS011;6091;51.432;6.880;2022-09-09T12:20:31;1.30;;;0.80;;
12059;SDS011;6091;51.432;6.880;2022-09-09T12:23:06;2.55;;;0.90;;
12059;SDS011;6091;51.432;6.880;2022-09-09T12:32:12;1.58;;;0.80;;
12059;SDS011;6091;51.432;6.880;2022-09-09T12:34:52;1.55;;;0.93;;
12059;SDS011;6091;51.432;6.880;2022-09-09T12:37:36;0.93;;;0.80;;
12059;SDS011;6091;51.432;6.880;2022-09-09T12:40:19;1.70;;;0.70;;
12059;SDS011;6091;51.432;6.880;2022-09-09T12:43:19;2.22;;;1.00;;
12059;SDS011;6091;51.432;6.880;2022-09-09T12:45:52;1.25;;;0.75;;
12059;SDS011;6091;51.432;6.880;2022-09-09T12:48:39;1.40;;;0.68;;
12059;SDS011;6091;51.432;6.880;2022-09-09T12:51:19;2.22;;;0.82;;
12059;SDS011;6091;51.432;6.880;2022-09-09T12:53:59;1.48;;;0.93;;
12059;SDS011;6091;51.432;6.880;2022-09-09T12:56:28;1.35;;;0.70;;
12059;SDS011;6091;51.432;6.880;2022-09-09T12:58:58;2.10;;;1.05;;
12059;SDS011;6091;51.432;6.880;2022-09-09T13:01:28;2.47;;;1.00;;
12059;SDS011;6091;51.432;6.880;2022-09-09T13:03:59;3.33;;;1.20;;
12059;SDS011;6091;51.432;6.880;2022-09-09T13:06:48;2.05;;;1.20;;
12059;SDS011;6091;51.432;6.880;2022-09-09T13:09:15;3.90;;;1.55;;
12059;SDS011;6091;51.432;6.880;2022-09-09T13:11:43;4.32;;;1.30;;
12059;SDS011;6091;51.432;6.880;2022-09-09T13:14:20;2.05;;;1.25;;
12059;SDS011;6091;51.432;6.880;2022-09-09T13:17:15;3.83;;;1.67;;
12059;SDS011;6091;51.432;6.880;2022-09-09T13:19:59;3.38;;;1.73;;
12059;SDS011;6091;51.432;6.880;2022-09-09T13:22:34;3.10;;;1.52;;
12059;SDS011;6091;51.432;6.880;2022-09-09T13:27:57;3.58;;;1.60;;
12059;SDS011;6091;51.432;6.880;2022-09-09T13:30:54;1.70;;;1.20;;
12059;SDS011;6091;51.432;6.880;2022-09-09T13:33:35;1.60;;;1.20;;
12059;SDS011;6091;51.432;6.880;2022-09-09T13:36:08;1.40;;;1.05;;
12059;SDS011;6091;51.432;6.880;2022-09-09T13:38:38;1.63;;;1.20;;
12059;SDS011;6091;51.432;6.880;2022-09-09T13:44:05;1.75;;;1.10;;
12059;SDS011;6091;51.432;6.880;2022-09-09T13:46:43;2.58;;;1.00;;
12059;SDS011;6091;51.432;6.880;2022-09-09T13:49:38;1.77;;;1.08;;
12059;SDS011;6091;51.432;6.880;2022-09-09T13:52:12;1.17;;;0.80;;
12059;SDS011;6091;51.432;6.880;2022-09-09T13:54:46;2.15;;;1.00;;
12059;SDS011;6091;51.432;6.880;2022-09-09T13:57:16;2.92;;;1.33;;
12059;SDS011;6091;51.432;6.880;2022-09-09T14:00:29;1.33;;;0.82;;
12059;SDS011;6091;51.432;6.880;2022-09-09T14:03:06;1.02;;;0.93;;
12059;SDS011;6091;51.432;6.880;2022-09-09T14:05:34;1.58;;;0.90;;
12059;SDS011;6091;51.432;6.880;2022-09-09T14:08:16;1.60;;;0.90;;
12059;SDS011;6091;51.432;6.880;2022-09-09T14:10:54;1.33;;;0.80;;
12059;SDS011;6091;51.432;6.880;2022-09-09T14:13:29;1.77;;;1.00;;
12059;SDS011;6091;51.432;6.880;2022-09-09T14:16:03;1.67;;;0.95;;
12059;SDS011;6091;51.432;6.880;2022-09-09T14:18:31;1.27;;;0.95;;
12059;SDS011;6091;51.432;6.880;2022-09-09T14:21:01;1.45;;;1.00;;
12059;SDS011;6091;51.432;6.880;2022-09-09T14:23:29;1.13;;;0.95;;
12059;SDS011;6091;51.432;6.880;2022-09-09T14:25:57;2.15;;;0.95;;
12059;SDS011;6091;51.432;6.880;2022-09-09T14:28:24;1.75;;;0.90;;
12059;SDS011;6091;51.432;6.880;2022-09-09T14:31:11;1.83;;;0.90;;
12059;SDS011;6091;51.432;6.880;2022-09-09T14:33:44;1.00;;;0.80;;
12059;SDS011;6091;51.432;6.880;2022-09-09T14:36:12;1.52;;;0.75;;
12059;SDS011;6091;51.432;6.880;2022-09-09T14:39:03;1.17;;;0.80;;
12059;SDS011;6091;51.432;6.880;2022-09-09T14:41:31;1.08;;;0.70;;
12059;SDS011;6091;51.432;6.880;2022-09-09T14:43:58;1.13;;;0.70;;
12059;SDS011;6091;51.432;6.880;2022-09-09T14:46:26;1.40;;;0.80;;
12059;SDS011;6091;51.432;6.880;2022-09-09T14:49:05;3.20;;;1.20;;
12059;SDS011;6091;51.432;6.880;2022-09-09T14:51:33;1.20;;;0.75;;
12059;SDS011;6091;51.432;6.880;2022-09-09T14:54:00;0.68;;;0.63;;
12059;SDS011;6091;51.432;6.880;2022-09-09T14:56:29;1.38;;;0.93;;
12059;SDS011;6091;51.432;6.880;2022-09-09T14:59:00;2.38;;;0.80;;
12059;SDS011;6091;51.432;6.880;2022-09-09T15:01:29;3.00;;;1.08;;
12059;SDS011;6091;51.432;6.880;2022-09-09T15:03:59;2.85;;;1.25;;
12059;SDS011;6091;51.432;6.880;2022-09-09T15:06:30;2.42;;;0.88;;
12059;SDS011;6091;51.432;6.880;2022-09-09T15:09:00;1.83;;;1.10;;
12059;SDS011;6091;51.432;6.880;2022-09-09T15:11:30;2.67;;;1.25;;
12059;SDS011;6091;51.432;6.880;2022-09-09T15:14:08;1.75;;;0.90;;
12059;SDS011;6091;51.432;6.880;2022-09-09T15:16:36;3.35;;;1.00;;
12059;SDS011;6091;51.432;6.880;2022-09-09T15:19:05;1.67;;;1.08;;
12059;SDS011;6091;51.432;6.880;2022-09-09T15:21:34;2.10;;;1.27;;
12059;SDS011;6091;51.432;6.880;2022-09-09T15:24:04;4.20;;;1.40;;
12059;SDS011;6091;51.432;6.880;2022-09-09T15:26:34;2.15;;;1.23;;
12059;SDS011;6091;51.432;6.880;2022-09-09T15:29:05;3.15;;;0.95;;
12059;SDS011;6091;51.432;6.880;2022-09-09T15:31:33;2.03;;;1.20;;
12059;SDS011;6091;51.432;6.880;2022-09-09T15:34:02;4.13;;;1.00;;
12059;SDS011;6091;51.432;6.880;2022-09-09T15:39:07;2.30;;;0.90;;
12059;SDS011;6091;51.432;6.880;2022-09-09T15:41:42;1.17;;;1.00;;
12059;SDS011;6091;51.432;6.880;2022-09-09T15:44:12;1.17;;;1.02;;
12059;SDS011;6091;51.432;6.880;2022-09-09T15:51:51;1.48;;;1.00;;
12059;SDS011;6091;51.432;6.880;2022-09-09T15:54:24;1.65;;;0.90;;
12059;SDS011;6091;51.432;6.880;2022-09-09T15:56:56;1.00;;;0.90;;
12059;SDS011;6091;51.432;6.880;2022-09-09T15:59:27;0.95;;;0.90;;
12059;SDS011;6091;51.432;6.880;2022-09-09T16:01:58;1.55;;;0.93;;
12059;SDS011;6091;51.432;6.880;2022-09-09T16:04:29;1.38;;;0.90;;
12059;SDS011;6091;51.432;6.880;2022-09-09T16:06:57;0.75;;;0.55;;
12059;SDS011;6091;51.432;6.880;2022-09-09T16:09:34;2.03;;;0.80;;
12059;SDS011;6091;51.432;6.880;2022-09-09T16:12:02;1.00;;;0.80;;
12059;SDS011;6091;51.432;6.880;2022-09-09T16:14:34;1.23;;;0.88;;
12059;SDS011;6091;51.432;6.880;2022-09-09T16:17:06;0.73;;;0.70;;
12059;SDS011;6091;51.432;6.880;2022-09-09T16:19:34;1.60;;;0.70;;
12059;SDS011;6091;51.432;6.880;2022-09-09T16:22:04;0.73;;;0.60;;
12059;SDS011;6091;51.432;6.880;2022-09-09T16:24:37;1.13;;;0.75;;
12059;SDS011;6091;51.432;6.880;2022-09-09T16:27:04;1.05;;;0.93;;
12059;SDS011;6091;51.432;6.880;2022-09-09T16:29:33;1.05;;;0.90;;
12059;SDS011;6091;51.432;6.880;2022-09-09T16:32:05;1.20;;;0.88;;
12059;SDS011;6091;51.432;6.880;2022-09-09T16:34:39;1.92;;;0.90;;
12059;SDS011;6091;51.432;6.880;2022-09-09T16:37:06;0.80;;;0.80;;
12059;SDS011;6091;51.432;6.880;2022-09-09T16:39:59;1.45;;;0.88;;
12059;SDS011;6091;51.432;6.880;2022-09-09T16:42:33;1.08;;;0.70;;
12059;SDS011;6091;51.432;6.880;2022-09-09T16:45:05;1.10;;;1.00;;
12059;SDS011;6091;51.432;6.880;2022-09-09T16:47:35;1.73;;;1.10;;
12059;SDS011;6091;51.432;6.880;2022-09-09T16:50:02;1.15;;;0.80;;
12059;SDS011;6091;51.432;6.880;2022-09-09T16:52:32;1.73;;;0.85;;
12059;SDS011;6091;51.432;6.880;2022-09-09T16:54:59;1.10;;;0.85;;
12059;SDS011;6091;51.432;6.880;2022-09-09T16:57:29;1.10;;;0.90;;
12059;SDS011;6091;51.432;6.880;2022-09-09T16:59:56;1.08;;;0.68;;
12059;SDS011;6091;51.432;6.880;2022-09-09T17:02:25;1.45;;;1.00;;
12059;SDS011;6091;51.432;6.880;2022-09-09T17:04:56;2.00;;;1.10;;
12059;SDS011;6091;51.432;6.880;2022-09-09T17:07:26;0.80;;;0.73;;
12059;SDS011;6091;51.432;6.880;2022-09-09T17:09:55;0.90;;;0.90;;
12059;SDS011;6091;51.432;6.880;2022-09-09T17:12:25;1.25;;;0.95;;
12059;SDS011;6091;51.432;6.880;2022-09-09T17:14:52;1.13;;;0.93;;
12059;SDS011;6091;51.432;6.880;2022-09-09T17:17:28;1.92;;;1.20;;
12059;SDS011;6091;51.432;6.880;2022-09-09T17:19:57;1.30;;;1.08;;
12059;SDS011;6091;51.432;6.880;2022-09-09T17:22:25;2.22;;;0.93;;
12059;SDS011;6091;51.432;6.880;2022-09-09T17:24:52;3.20;;;1.13;;
12059;SDS011;6091;51.432;6.880;2022-09-09T17:27:22;1.38;;;1.10;;
12059;SDS011;6091;51.432;6.880;2022-09-09T17:29:58;5.35;;;1.20;;
12059;SDS011;6091;51.432;6.880;2022-09-09T17:32:25;1.52;;;1.23;;
12059;SDS011;6091;51.432;6.880;2022-09-09T17:34:55;1.67;;;1.13;;
12059;SDS011;6091;51.432;6.880;2022-09-09T17:37:22;2.40;;;1.13;;
12059;SDS011;6091;51.432;6.880;2022-09-09T17:39:49;1.67;;;1.17;;